West Homestead, Pennsylvania
Current Conditions -  °F | °C
As of 11:53 PM on Thursday 27 Nov 2014 (Local Time) from KAGC Reporting Station
Overcast Overcast  
Wind Chill: 20°   Ceiling: 1800
Heat Index: 29°   Visibility: 10mi
Dew Point: 21°   Wind: 9mph
Humidity: 72%   Direction: 280°W
Pressure: 30.19"   Gusts: 18mph
Location:  40.3948°N, 79.9074°W
Report Text: KAGC 280453Z 28008G16KT 10SM OVC018 M02/M06 A3019 RMK AO2 SLP242 T10171061 400171022
Loading
Personal Weather Stations






























Interactive Weather Map New forecast layout! Learn more

10-Day Weather Forecast

Advertisements
Track Severe Weather on mobile